Terminal Aerodrome Forecast
Issued by NWS

Home | Current Version | Previous Version | Text Only | Print | Product List | Glossary On
Versions: 1 2 3 4 5 6 7 8 9 10 11 12 13 14 15 16 17 18 19
000
FTUS43 KICT 180720 AAA
TAFCNU
TAF AMD
KCNU 180720Z 1807/1906 05004KT 2SM -PLSN OVC005
      TEMPO 1807/1811 3SM -SN BR
     FM181100 03004KT 1SM -PLSN OVC003
     FM181500 VRB05KT 1/2SM FG SCT004 OVC007
     FM181800 07005KT 4SM BR BKN007 OVC015=

USA.gov is the U.S. government's official web portal to all federal, state and local government web resources and services.